Nolanville, Texas
Current Conditions -  °F | °C
As of 8:35 AM on Thursday 30 Oct 2014 (Local Time) from KILE Reporting Station
Broken Clouds Broken Clouds  
Wind Chill: 61°   Ceiling: 4800
Heat Index: 61°   Visibility: 10mi
Dew Point: 52°   Wind: 5mph
Humidity: 72%   Direction: 110°ESE
Pressure: 30.13"   Gusts: NA
Location:  31.08°N, 97.61°W
Report Text: KILE 301335Z AUTO 11004KT 10SM FEW007 SCT042 BKN048 16/11 A3013 RMK AO1
Loading
Personal Weather Stations






























Interactive Weather Map
Tropical Storm Tracking
New forecast layout! Learn more

10-Day Weather Forecast

Advertisements
Track Severe Weather on mobile